Time;durP1;ratioP1;P1;durP2;ratioP2;P2;SDS_P1;SDS_P2;PMS_P1;PMS_P2;Temp;Humidity;BMP_temperature;BMP_pressure;BME280_temperature;BME280_humidity;BME280_pressure;Samples;Min_cycle;Max_cycle;Signal;HPM_P1;HPM_P2
2023/03/26 00:00:37;;;;;;;4.00;0.80;;;;;;;;;;4982141;28;20138;-79
2023/03/26 00:03:03;;;;;;;2.75;0.70;;;;;;;;;;4967310;28;20039;-77
2023/03/26 00:05:31;;;;;;;6.75;1.25;;;;;;;;;;4979633;28;20050;-79
2023/03/26 00:07:57;;;;;;;4.38;0.73;;;;;;;;;;4970050;28;20155;-79
2023/03/26 00:10:24;;;;;;;3.80;0.65;;;;;;;;;;4952347;28;20062;-79
2023/03/26 00:12:51;;;;;;;6.53;0.90;;;;;;;;;;4968532;28;20066;-79
2023/03/26 00:15:17;;;;;;;3.95;0.60;;;;;;;;;;4954070;28;20447;-79
2023/03/26 00:17:45;;;;;;;6.22;1.02;;;;;;;;;;4951426;28;20455;-78
2023/03/26 00:20:12;;;;;;;4.90;0.60;;;;;;;;;;4951282;28;20059;-79
2023/03/26 00:22:40;;;;;;;6.28;0.80;;;;;;;;;;4952654;28;20051;-80
2023/03/26 00:25:07;;;;;;;5.03;0.88;;;;;;;;;;4956402;28;20047;-79
2023/03/26 00:27:33;;;;;;;4.93;0.90;;;;;;;;;;4957822;28;20070;-79
2023/03/26 00:30:02;;;;;;;4.13;0.80;;;;;;;;;;4956868;28;20138;-80
2023/03/26 00:32:31;;;;;;;4.00;0.70;;;;;;;;;;4947769;28;20047;-80
2023/03/26 00:34:57;;;;;;;3.17;0.70;;;;;;;;;;4953904;28;20587;-78
2023/03/26 00:37:25;;;;;;;5.07;0.95;;;;;;;;;;4955332;28;20067;-78
2023/03/26 00:39:52;;;;;;;4.93;0.82;;;;;;;;;;4953153;28;20134;-80
2023/03/26 00:42:26;;;;;;;2.83;0.50;;;;;;;;;;4966457;28;20091;-76
2023/03/26 00:45:02;;;;;;;5.82;0.82;;;;;;;;;;4951548;28;20513;-78
2023/03/26 00:47:31;;;;;;;6.72;1.02;;;;;;;;;;4954318;28;20058;-77
2023/03/26 00:49:58;;;;;;;1.73;0.65;;;;;;;;;;4951909;28;20764;-79
2023/03/26 00:52:27;;;;;;;2.00;0.75;;;;;;;;;;4955051;28;20043;-79
2023/03/26 00:54:54;;;;;;;2.70;0.85;;;;;;;;;;4948593;28;20062;-77
2023/03/26 00:57:21;;;;;;;4.30;1.08;;;;;;;;;;4948994;28;20463;-78
2023/03/26 01:00:14;;;;;;;7.03;0.93;;;;;;;;;;4950084;28;20059;-78
2023/03/26 01:02:54;;;;;;;4.75;0.80;;;;;;;;;;4983850;28;20443;-76
2023/03/26 01:05:33;;;;;;;4.40;0.88;;;;;;;;;;4984410;28;20047;-77
2023/03/26 01:08:16;;;;;;;4.40;0.85;;;;;;;;;;4970006;28;20065;-77
2023/03/26 01:10:49;;;;;;;6.20;0.80;;;;;;;;;;4983913;28;20400;-78
2023/03/26 01:13:20;;;;;;;7.32;0.90;;;;;;;;;;4956831;28;20422;-77
2023/03/26 01:15:51;;;;;;;6.32;0.80;;;;;;;;;;4962309;28;20051;-77
2023/03/26 01:18:25;;;;;;;5.57;0.73;;;;;;;;;;4948974;28;20043;-77
2023/03/26 01:21:04;;;;;;;7.00;0.90;;;;;;;;;;4950788;28;20047;-77
2023/03/26 01:23:37;;;;;;;5.07;0.80;;;;;;;;;;4933463;28;20191;-76
2023/03/26 01:26:13;;;;;;;3.28;0.57;;;;;;;;;;4949226;28;20518;-77
2023/03/26 01:28:40;;;;;;;2.17;0.85;;;;;;;;;;4992925;28;20391;-77
2023/03/26 01:31:35;;;;;;;4.18;0.63;;;;;;;;;;4966402;28;20050;-77
2023/03/26 01:34:23;;;;;;;8.85;0.98;;;;;;;;;;4945891;28;20043;-77
2023/03/26 01:37:03;;;;;;;2.20;0.68;;;;;;;;;;4952227;28;20051;-78
2023/03/26 01:39:39;;;;;;;5.15;0.90;;;;;;;;;;4956937;28;20067;-77
2023/03/26 01:42:15;;;;;;;6.13;0.93;;;;;;;;;;4989263;28;20055;-77
2023/03/26 01:44:52;;;;;;;7.50;0.88;;;;;;;;;;4973133;28;20073;-77
2023/03/26 01:47:19;;;;;;;3.17;0.80;;;;;;;;;;4954818;28;20200;-77
2023/03/26 01:49:47;;;;;;;6.65;1.08;;;;;;;;;;4953273;28;20043;-77
2023/03/26 01:52:16;;;;;;;5.28;1.00;;;;;;;;;;4990182;28;20402;-78
2023/03/26 01:54:45;;;;;;;8.40;1.00;;;;;;;;;;4970953;28;20049;-77
2023/03/26 01:57:30;;;;;;;8.15;0.95;;;;;;;;;;5000791;28;20082;-78
2023/03/26 02:00:05;;;;;;;7.37;1.00;;;;;;;;;;4967656;28;20074;-77
2023/03/26 02:02:42;;;;;;;5.00;0.90;;;;;;;;;;4967769;28;20054;-76
2023/03/26 02:05:09;;;;;;;6.30;1.08;;;;;;;;;;4968276;28;20304;-77
2023/03/26 02:07:40;;;;;;;4.47;1.02;;;;;;;;;;5000353;28;20057;-76
2023/03/26 02:10:10;;;;;;;7.80;1.30;;;;;;;;;;4999413;28;20049;-77
2023/03/26 02:12:38;;;;;;;3.13;1.10;;;;;;;;;;4968536;28;20070;-77
2023/03/26 02:15:05;;;;;;;5.53;1.30;;;;;;;;;;4998420;28;20515;-76
2023/03/26 02:17:32;;;;;;;5.97;1.23;;;;;;;;;;4951861;28;20050;-77
2023/03/26 02:20:09;;;;;;;7.70;1.30;;;;;;;;;;4998181;28;20082;-77
2023/03/26 02:22:39;;;;;;;6.07;1.10;;;;;;;;;;4967666;28;20046;-76
2023/03/26 02:25:09;;;;;;;8.85;1.27;;;;;;;;;;4984070;28;20126;-77
2023/03/26 02:27:36;;;;;;;5.45;1.08;;;;;;;;;;4998669;28;20449;-78
2023/03/26 02:30:07;;;;;;;7.55;1.58;;;;;;;;;;4957725;28;20138;-77
2023/03/26 02:32:37;;;;;;;5.40;1.40;;;;;;;;;;4964137;28;20546;-77
2023/03/26 02:35:10;;;;;;;5.45;1.00;;;;;;;;;;4947359;28;20055;-78
2023/03/26 02:37:38;;;;;;;5.05;1.05;;;;;;;;;;4964324;28;20130;-77
2023/03/26 02:40:12;;;;;;;7.22;1.20;;;;;;;;;;4946154;28;20518;-76
2023/03/26 02:42:41;;;;;;;5.60;1.08;;;;;;;;;;4962610;28;20175;-77
2023/03/26 02:45:08;;;;;;;6.03;1.27;;;;;;;;;;4961266;28;20043;-76
2023/03/26 02:47:46;;;;;;;9.10;1.38;;;;;;;;;;4950065;28;20102;-76
2023/03/26 02:50:37;;;;;;;2.90;1.00;;;;;;;;;;4948014;28;20387;-76
2023/03/26 02:53:42;;;;;;;3.63;0.90;;;;;;;;;;4926676;29;20504;-76
2023/03/26 02:56:29;;;;;;;6.00;1.10;;;;;;;;;;4913811;29;20064;-77
2023/03/26 02:59:12;;;;;;;6.78;0.95;;;;;;;;;;4958832;28;20070;-77
2023/03/26 03:01:45;;;;;;;6.88;1.10;;;;;;;;;;4964493;28;20043;-76
2023/03/26 03:04:14;;;;;;;5.07;1.10;;;;;;;;;;4981966;28;20603;-77
2023/03/26 03:06:40;;;;;;;2.83;0.95;;;;;;;;;;4952067;28;20511;-77
2023/03/26 03:09:07;;;;;;;8.32;1.08;;;;;;;;;;4967820;28;20082;-77
2023/03/26 03:11:34;;;;;;;13.18;1.08;;;;;;;;;;4952211;28;20051;-77
2023/03/26 03:14:01;;;;;;;5.07;1.23;;;;;;;;;;4966650;28;20444;-77
2023/03/26 03:16:29;;;;;;;5.93;0.90;;;;;;;;;;4967290;28;20098;-77
2023/03/26 03:19:01;;;;;;;4.13;1.05;;;;;;;;;;4951823;28;20230;-78
2023/03/26 03:21:36;;;;;;;4.93;1.30;;;;;;;;;;4968305;28;20049;-78
2023/03/26 03:24:03;;;;;;;4.25;1.40;;;;;;;;;;4970054;28;20561;-78
2023/03/26 03:26:40;;;;;;;4.93;1.17;;;;;;;;;;4968603;28;20058;-78
2023/03/26 03:29:25;;;;;;;5.22;1.45;;;;;;;;;;4980625;28;20041;-77
2023/03/26 03:31:52;;;;;;;14.25;1.30;;;;;;;;;;4949811;28;20461;-78
2023/03/26 03:34:37;;;;;;;8.52;1.42;;;;;;;;;;4969869;28;20597;-77
2023/03/26 03:37:04;;;;;;;10.20;1.20;;;;;;;;;;4969480;28;20058;-78
2023/03/26 03:39:45;;;;;;;11.10;1.20;;;;;;;;;;4970300;28;20042;-78
2023/03/26 03:42:15;;;;;;;9.73;1.42;;;;;;;;;;4987779;28;20059;-79
2023/03/26 03:44:42;;;;;;;4.22;1.00;;;;;;;;;;4987054;28;20043;-78
2023/03/26 03:47:26;;;;;;;10.00;1.08;;;;;;;;;;4971320;28;20050;-77
2023/03/26 03:49:53;;;;;;;8.00;1.25;;;;;;;;;;4969197;28;20050;-78
2023/03/26 03:52:19;;;;;;;9.32;1.17;;;;;;;;;;4969914;28;20046;-78
2023/03/26 03:54:46;;;;;;;3.63;1.10;;;;;;;;;;4985969;28;20043;-77
2023/03/26 03:57:20;;;;;;;5.07;1.40;;;;;;;;;;4970351;28;20046;-78
2023/03/26 04:00:08;;;;;;;6.63;1.30;;;;;;;;;;4986829;28;20043;-77
2023/03/26 04:02:41;;;;;;;5.70;1.30;;;;;;;;;;4974920;28;20054;-79
2023/03/26 04:05:10;;;;;;;8.70;1.27;;;;;;;;;;4973871;28;20054;-77
2023/03/26 04:07:44;;;;;;;7.55;1.40;;;;;;;;;;4973957;28;20086;-78
2023/03/26 04:10:42;;;;;;;7.50;1.27;;;;;;;;;;4978977;28;20073;-78
2023/03/26 04:13:15;;;;;;;;;;;;;;;;;;4983333;28;20054;-78
2023/03/26 04:16:10;;;;;;;8.52;1.38;;;;;;;;;;4968405;28;19985;-75
2023/03/26 04:18:38;;;;;;;11.45;1.20;;;;;;;;;;4997356;28;20054;-77
2023/03/26 04:21:11;;;;;;;7.93;1.02;;;;;;;;;;4976744;28;20038;-77
2023/03/26 04:23:44;;;;;;;10.52;1.33;;;;;;;;;;4992018;28;20053;-77
2023/03/26 04:26:34;;;;;;;7.43;1.50;;;;;;;;;;4964712;28;20043;-77
2023/03/26 04:29:15;;;;;;;11.63;1.40;;;;;;;;;;4974221;28;20054;-77
2023/03/26 04:31:43;;;;;;;5.00;1.17;;;;;;;;;;4988523;28;20054;-76
2023/03/26 04:34:30;;;;;;;8.75;1.08;;;;;;;;;;4975063;28;20050;-78
2023/03/26 04:37:26;;;;;;;6.25;1.17;;;;;;;;;;4985221;28;20049;-77
2023/03/26 04:40:09;;;;;;;9.73;1.25;;;;;;;;;;4973225;28;20043;-78
2023/03/26 04:43:01;;;;;;;5.40;1.05;;;;;;;;;;4998156;28;20043;-80
2023/03/26 04:45:47;;;;;;;6.15;1.02;;;;;;;;;;4978258;28;20790;-80
2023/03/26 04:48:17;;;;;;;9.57;1.45;;;;;;;;;;4976144;28;20043;-80
2023/03/26 04:50:44;;;;;;;6.97;1.42;;;;;;;;;;4973812;28;20065;-78
2023/03/26 04:53:14;;;;;;;9.45;1.05;;;;;;;;;;4991425;28;20063;-78
2023/03/26 04:56:01;;;;;;;4.20;1.40;;;;;;;;;;4975257;28;20049;-77
2023/03/26 04:58:55;;;;;;;5.38;1.10;;;;;;;;;;4972716;28;20046;-78
2023/03/26 05:01:27;;;;;;;10.48;1.63;;;;;;;;;;4970385;28;20047;-78
2023/03/26 05:03:54;;;;;;;9.70;1.67;;;;;;;;;;4972468;28;20046;-78
2023/03/26 05:06:21;;;;;;;6.97;1.55;;;;;;;;;;4972861;28;20387;-78
2023/03/26 05:08:48;;;;;;;7.72;1.58;;;;;;;;;;4972493;28;20051;-78
2023/03/26 05:11:39;;;;;;;8.65;1.58;;;;;;;;;;4971383;28;20071;-78
2023/03/26 05:14:06;;;;;;;10.75;1.20;;;;;;;;;;4972174;28;20039;-78
2023/03/26 05:16:33;;;;;;;7.65;1.35;;;;;;;;;;4988477;28;20083;-79
2023/03/26 05:19:05;;;;;;;9.13;1.98;;;;;;;;;;4984828;28;20094;-77
2023/03/26 05:21:34;;;;;;;8.43;1.77;;;;;;;;;;4988314;28;20051;-79
2023/03/26 05:24:01;;;;;;;11.57;1.17;;;;;;;;;;4970193;28;20062;-77
2023/03/26 05:26:28;;;;;;;9.35;1.63;;;;;;;;;;4970523;28;20142;-77
2023/03/26 05:28:56;;;;;;;14.20;1.50;;;;;;;;;;5005458;28;20048;-78
2023/03/26 05:31:43;;;;;;;9.65;1.30;;;;;;;;;;4970757;28;20077;-78
2023/03/26 05:34:10;;;;;;;9.45;1.33;;;;;;;;;;4971407;28;20078;-78
2023/03/26 05:36:37;;;;;;;8.13;1.60;;;;;;;;;;4984068;28;20057;-78
2023/03/26 05:39:25;;;;;;;8.23;1.67;;;;;;;;;;4970580;28;20414;-78
2023/03/26 05:41:57;;;;;;;5.37;1.30;;;;;;;;;;4972323;28;20050;-78
2023/03/26 05:44:32;;;;;;;8.85;1.40;;;;;;;;;;4973704;28;20298;-78
2023/03/26 05:47:02;;;;;;;9.88;1.67;;;;;;;;;;4988382;28;20057;-78
2023/03/26 05:49:29;;;;;;;14.48;2.30;;;;;;;;;;4974098;28;20062;-77
2023/03/26 05:51:59;;;;;;;5.68;1.20;;;;;;;;;;4986721;28;20051;-78
2023/03/26 05:54:58;;;;;;;7.38;1.40;;;;;;;;;;4944824;28;20050;-79
2023/03/26 05:57:46;;;;;;;14.23;1.55;;;;;;;;;;4964176;28;20079;-79
2023/03/26 06:00:32;;;;;;;7.63;1.30;;;;;;;;;;4961392;28;20129;-78
2023/03/26 06:03:02;;;;;;;6.05;1.50;;;;;;;;;;4969945;28;20039;-77
2023/03/26 06:05:50;;;;;;;8.38;1.50;;;;;;;;;;4971201;28;20106;-78
2023/03/26 06:08:35;;;;;;;9.38;1.65;;;;;;;;;;4974620;28;20406;-78
2023/03/26 06:11:03;;;;;;;8.43;1.42;;;;;;;;;;4972635;28;20047;-80
2023/03/26 06:13:33;;;;;;;9.38;1.50;;;;;;;;;;4972015;28;20050;-79
2023/03/26 06:16:00;;;;;;;7.50;1.13;;;;;;;;;;4972611;28;20043;-78
2023/03/26 06:18:36;;;;;;;9.90;1.63;;;;;;;;;;4969571;28;20051;-75
2023/03/26 06:21:22;;;;;;;10.68;1.35;;;;;;;;;;4971831;28;20537;-78
2023/03/26 06:23:59;;;;;;;11.77;1.40;;;;;;;;;;4972850;28;20058;-79
2023/03/26 06:26:45;;;;;;;11.20;1.50;;;;;;;;;;4997375;28;20101;-77
2023/03/26 06:29:17;;;;;;;9.30;1.30;;;;;;;;;;5002512;28;20403;-77
2023/03/26 06:31:55;;;;;;;10.10;1.27;;;;;;;;;;4969105;28;20074;-78
2023/03/26 06:34:42;;;;;;;10.55;1.30;;;;;;;;;;4972033;28;20053;-78
2023/03/26 06:37:08;;;;;;;8.02;1.40;;;;;;;;;;4993185;28;20205;-78
2023/03/26 06:39:35;;;;;;;6.93;1.30;;;;;;;;;;4974493;28;20289;-78
2023/03/26 06:42:19;;;;;;;6.35;1.40;;;;;;;;;;4972795;28;20126;-77
2023/03/26 06:45:36;;;;;;;5.50;1.33;;;;;;;;;;4935820;28;20356;-77
2023/03/26 06:48:23;;;;;;;9.85;1.27;;;;;;;;;;4967041;28;20039;-77
2023/03/26 06:51:16;;;;;;;7.82;1.40;;;;;;;;;;4972427;28;20039;-77
2023/03/26 06:54:17;;;;;;;8.93;1.33;;;;;;;;;;4938053;28;20036;-79
2023/03/26 06:56:59;;;;;;;8.98;1.40;;;;;;;;;;4974780;28;20463;-78
2023/03/26 06:59:41;;;;;;;5.80;1.30;;;;;;;;;;4976941;28;20047;-78
2023/03/26 07:02:27;;;;;;;10.60;1.65;;;;;;;;;;4974173;28;20054;-77
2023/03/26 07:05:23;;;;;;;5.75;1.33;;;;;;;;;;4942361;28;20429;-77
2023/03/26 07:08:10;;;;;;;12.70;1.55;;;;;;;;;;4976921;28;20042;-79
2023/03/26 07:10:55;;;;;;;11.40;1.50;;;;;;;;;;4962332;28;20057;-79
2023/03/26 07:13:40;;;;;;;8.85;1.45;;;;;;;;;;4975806;28;20057;-80
2023/03/26 07:16:37;;;;;;;8.55;1.30;;;;;;;;;;4979272;28;20046;-79
2023/03/26 07:19:16;;;;;;;10.10;1.63;;;;;;;;;;4997221;28;20058;-80
2023/03/26 07:21:43;;;;;;;10.60;1.33;;;;;;;;;;4958947;28;20054;-78
2023/03/26 07:24:28;;;;;;;8.07;1.45;;;;;;;;;;4965149;28;20050;-75
2023/03/26 07:27:30;;;;;;;11.10;1.40;;;;;;;;;;5008081;28;20110;-77
2023/03/26 07:29:57;;;;;;;10.98;1.33;;;;;;;;;;4974475;28;20137;-79
2023/03/26 07:33:02;;;;;;;5.50;1.10;;;;;;;;;;4978663;28;20128;-79
2023/03/26 07:35:45;;;;;;;12.35;1.80;;;;;;;;;;4984690;28;20478;-79
2023/03/26 07:38:54;;;;;;;6.70;1.60;;;;;;;;;;4999354;28;20293;-80
2023/03/26 07:41:53;;;;;;;5.28;1.27;;;;;;;;;;5004986;28;20084;-78
2023/03/26 07:44:38;;;;;;;9.48;2.10;;;;;;;;;;4999790;28;20078;-80
2023/03/26 07:47:33;;;;;;;10.82;1.52;;;;;;;;;;4998529;28;20509;-79
2023/03/26 07:50:22;;;;;;;8.70;1.83;;;;;;;;;;4993024;28;20481;-78
2023/03/26 07:53:03;;;;;;;11.57;1.60;;;;;;;;;;4994320;28;20046;-81
2023/03/26 07:56:00;;;;;;;8.10;1.67;;;;;;;;;;4969777;28;20043;-80
2023/03/26 07:58:57;;;;;;;8.70;1.52;;;;;;;;;;4955791;28;20053;-80
2023/03/26 08:01:57;;;;;;;11.23;1.90;;;;;;;;;;4973577;28;20042;-80
2023/03/26 08:04:42;;;;;;;9.68;1.73;;;;;;;;;;4990966;28;20107;-80
2023/03/26 08:07:51;;;;;;;8.77;1.52;;;;;;;;;;4973683;28;20054;-79
2023/03/26 08:10:31;;;;;;;13.18;1.98;;;;;;;;;;4988577;28;20066;-78
2023/03/26 08:13:19;;;;;;;9.48;1.60;;;;;;;;;;4950740;28;20062;-79
2023/03/26 08:15:46;;;;;;;11.88;1.75;;;;;;;;;;4970450;28;20050;-78
2023/03/26 08:18:26;;;;;;;10.10;1.40;;;;;;;;;;4989740;28;20046;-79
2023/03/26 08:20:56;;;;;;;12.35;1.77;;;;;;;;;;4986978;28;20089;-78
2023/03/26 08:23:23;;;;;;;10.73;1.67;;;;;;;;;;4971043;28;20046;-78
2023/03/26 08:25:50;;;;;;;7.55;1.58;;;;;;;;;;4982488;28;20063;-79
2023/03/26 08:28:22;;;;;;;17.92;2.08;;;;;;;;;;4974086;28;20135;-79
2023/03/26 08:30:53;;;;;;;13.82;2.20;;;;;;;;;;4982865;28;20070;-78
2023/03/26 08:33:21;;;;;;;6.68;1.60;;;;;;;;;;4965160;28;20051;-79
2023/03/26 08:35:48;;;;;;;9.57;1.85;;;;;;;;;;4966367;28;20487;-80
2023/03/26 08:38:16;;;;;;;7.75;1.40;;;;;;;;;;4985297;28;20057;-79
2023/03/26 08:41:01;;;;;;;8.38;1.42;;;;;;;;;;4969210;28;20049;-78
2023/03/26 08:43:47;;;;;;;8.10;1.52;;;;;;;;;;4951614;28;20118;-79
2023/03/26 08:46:19;;;;;;;8.52;1.48;;;;;;;;;;4971431;28;20390;-79
2023/03/26 08:48:52;;;;;;;10.02;1.50;;;;;;;;;;4990346;28;20458;-79
2023/03/26 08:51:22;;;;;;;6.03;1.55;;;;;;;;;;4977422;28;20074;-80
2023/03/26 08:53:55;;;;;;;14.05;1.55;;;;;;;;;;4987091;28;20451;-78
2023/03/26 08:56:31;;;;;;;8.15;1.60;;;;;;;;;;4969663;28;20046;-79
2023/03/26 08:59:23;;;;;;;11.43;2.00;;;;;;;;;;4986310;28;20494;-80
2023/03/26 09:01:50;;;;;;;7.80;1.65;;;;;;;;;;4966714;28;20050;-80
2023/03/26 09:04:38;;;;;;;7.95;1.60;;;;;;;;;;4968619;28;20042;-80
2023/03/26 09:07:05;;;;;;;7.07;1.40;;;;;;;;;;4959126;28;20180;-80
2023/03/26 09:09:32;;;;;;;6.05;1.30;;;;;;;;;;4951684;28;20078;-78
2023/03/26 09:11:59;;;;;;;12.95;1.50;;;;;;;;;;4974531;28;20062;-79
2023/03/26 09:14:31;;;;;;;5.57;1.35;;;;;;;;;;4968778;28;20498;-80
2023/03/26 09:17:18;;;;;;;7.57;1.73;;;;;;;;;;4965715;28;20043;-81
2023/03/26 09:19:59;;;;;;;7.18;1.38;;;;;;;;;;5037374;27;1588423;-80
2023/03/26 09:22:52;;;;;;;7.25;1.45;;;;;;;;;;5088216;28;20500;-79
2023/03/26 09:25:38;;;;;;;7.97;1.67;;;;;;;;;;5088321;28;20420;-78
2023/03/26 09:28:08;;;;;;;5.00;1.40;;;;;;;;;;5092449;28;20121;-79
2023/03/26 09:30:41;;;;;;;9.55;1.13;;;;;;;;;;5094710;28;20093;-79
2023/03/26 09:33:18;;;;;;;5.78;1.58;;;;;;;;;;5074570;28;20072;-80
2023/03/26 09:36:03;;;;;;;5.45;1.45;;;;;;;;;;5077364;28;20663;-79
2023/03/26 09:38:30;;;;;;;9.38;1.45;;;;;;;;;;5067412;28;20041;-80
2023/03/26 09:41:04;;;;;;;6.15;1.40;;;;;;;;;;5067260;28;20140;-79
2023/03/26 09:43:58;;;;;;;4.32;1.10;;;;;;;;;;5068192;28;20056;-80
2023/03/26 09:46:36;;;;;;;5.93;1.20;;;;;;;;;;5068533;28;20056;-80
2023/03/26 09:49:23;;;;;;;8.30;1.20;;;;;;;;;;5087832;28;20067;-79
2023/03/26 09:51:50;;;;;;;;;;;;;;;;;;5087259;28;20131;-79
2023/03/26 09:54:43;;;;;;;5.72;1.00;;;;;;;;;;5086549;28;20035;-79
2023/03/26 09:57:29;;;;;;;7.07;1.15;;;;;;;;;;5083781;28;20051;-81
2023/03/26 10:00:12;;;;;;;9.18;1.40;;;;;;;;;;5086200;28;20057;-80
2023/03/26 10:02:50;;;;;;;6.50;1.40;;;;;;;;;;5072050;28;20078;-78
2023/03/26 10:05:30;;;;;;;4.25;1.00;;;;;;;;;;5089082;28;20495;-79
2023/03/26 10:08:00;;;;;;;3.90;0.90;;;;;;;;;;5074540;28;20055;-79
2023/03/26 10:10:26;;;;;;;7.68;1.48;;;;;;;;;;5106609;28;20036;-79
2023/03/26 10:13:06;;;;;;;3.80;0.88;;;;;;;;;;5083698;28;20068;-79
2023/03/26 10:15:56;;;;;;;5.35;1.10;;;;;;;;;;5047230;28;20056;-79
2023/03/26 10:18:28;;;;;;;6.13;1.15;;;;;;;;;;5080609;28;20036;-79
2023/03/26 10:21:10;;;;;;;8.02;1.20;;;;;;;;;;5083886;28;20080;-79
2023/03/26 10:23:40;;;;;;;3.88;1.00;;;;;;;;;;5072263;28;20468;-78
2023/03/26 10:26:07;;;;;;;5.95;1.13;;;;;;;;;;5087033;28;20040;-80
2023/03/26 10:28:59;;;;;;;6.15;1.30;;;;;;;;;;5088097;28;20043;-81
2023/03/26 10:31:35;;;;;;;6.65;1.13;;;;;;;;;;5071675;28;20071;-79
2023/03/26 10:34:15;;;;;;;5.97;0.80;;;;;;;;;;5071294;28;20105;-79
2023/03/26 10:37:21;;;;;;;3.38;0.90;;;;;;;;;;5072595;28;20045;-79
2023/03/26 10:39:48;;;;;;;5.32;1.10;;;;;;;;;;5049418;28;20132;-79
2023/03/26 10:42:34;;;;;;;8.75;1.40;;;;;;;;;;5060941;28;20043;-78
2023/03/26 10:45:09;;;;;;;8.40;1.48;;;;;;;;;;5069202;28;20941;-78
2023/03/26 10:47:49;;;;;;;12.65;1.25;;;;;;;;;;5052548;28;20105;-79
2023/03/26 10:50:35;;;;;;;9.15;1.45;;;;;;;;;;5048309;28;20053;-78
2023/03/26 10:53:25;;;;;;;9.20;1.13;;;;;;;;;;5051488;28;20055;-79
2023/03/26 10:55:54;;;;;;;9.05;1.55;;;;;;;;;;5052015;28;20052;-79
2023/03/26 10:58:22;;;;;;;5.22;0.93;;;;;;;;;;5060698;28;20044;-79
2023/03/26 11:00:58;;;;;;;6.65;1.60;;;;;;;;;;5069855;28;20060;-79
2023/03/26 11:03:38;;;;;;;8.10;1.33;;;;;;;;;;5086117;28;20071;-81
2023/03/26 11:06:15;;;;;;;5.55;1.23;;;;;;;;;;5067700;28;20103;-80
2023/03/26 11:08:47;;;;;;;7.15;1.77;;;;;;;;;;5084786;28;20052;-80
2023/03/26 11:11:21;;;;;;;4.85;1.20;;;;;;;;;;5084380;28;20040;-79
2023/03/26 11:13:48;;;;;;;5.47;1.15;;;;;;;;;;5064796;28;20067;-80
2023/03/26 11:16:18;;;;;;;8.57;1.17;;;;;;;;;;5082153;28;20051;-79
2023/03/26 11:18:58;;;;;;;5.68;1.20;;;;;;;;;;5081414;28;20352;-80
2023/03/26 11:21:43;;;;;;;5.35;1.10;;;;;;;;;;5070962;28;20124;-79
2023/03/26 11:24:10;;;;;;;6.35;1.13;;;;;;;;;;5051159;28;20055;-79
2023/03/26 11:26:43;;;;;;;8.82;1.58;;;;;;;;;;5067120;28;20045;-79
2023/03/26 11:29:28;;;;;;;9.13;1.33;;;;;;;;;;5089375;28;20136;-78
2023/03/26 11:31:58;;;;;;;6.32;1.10;;;;;;;;;;5072378;28;20464;-81
2023/03/26 11:34:48;;;;;;;9.18;1.17;;;;;;;;;;5043814;28;20131;-80
2023/03/26 11:37:17;;;;;;;8.70;1.38;;;;;;;;;;5063051;28;20049;-79
2023/03/26 11:39:55;;;;;;;9.25;1.30;;;;;;;;;;5062189;28;20195;-79
2023/03/26 11:42:23;;;;;;;7.40;1.27;;;;;;;;;;5078887;28;20511;-80
2023/03/26 11:44:53;;;;;;;6.10;1.35;;;;;;;;;;5076079;28;20094;-79
2023/03/26 11:47:28;;;;;;;5.68;1.23;;;;;;;;;;5066341;28;20133;-77
2023/03/26 11:49:57;;;;;;;9.23;1.67;;;;;;;;;;5058818;28;20144;-80
2023/03/26 11:52:25;;;;;;;8.35;1.42;;;;;;;;;;5066249;28;20052;-80
2023/03/26 11:54:52;;;;;;;7.30;1.35;;;;;;;;;;5070871;28;20105;-80
2023/03/26 11:57:23;;;;;;;8.05;1.08;;;;;;;;;;5066104;28;20424;-79
2023/03/26 11:59:49;;;;;;;5.18;1.10;;;;;;;;;;5053771;28;20425;-80
2023/03/26 12:02:27;;;;;;;11.05;1.90;;;;;;;;;;5038603;28;20049;-80
2023/03/26 12:05:25;;;;;;;7.05;1.38;;;;;;;;;;5073632;28;20880;-80
2023/03/26 12:07:54;;;;;;;5.72;1.20;;;;;;;;;;5064642;28;20491;-79
2023/03/26 12:10:21;;;;;;;9.73;1.63;;;;;;;;;;5082494;28;20392;-79
2023/03/26 12:12:47;;;;;;;9.10;1.35;;;;;;;;;;5079153;28;20045;-80
2023/03/26 12:15:18;;;;;;;7.80;1.30;;;;;;;;;;5054706;28;20045;-79
2023/03/26 12:17:46;;;;;;;4.63;1.00;;;;;;;;;;5046252;28;20053;-79
2023/03/26 12:20:22;;;;;;;8.82;1.75;;;;;;;;;;5056699;28;20229;-80
2023/03/26 12:22:50;;;;;;;;;;;;;;;;;;5076551;28;20045;-80
2023/03/26 12:25:17;;;;;;;8.45;1.70;;;;;;;;;;5073594;28;19938;-78
2023/03/26 12:27:47;;;;;;;8.45;1.45;;;;;;;;;;5074547;28;20135;-79
2023/03/26 12:30:24;;;;;;;10.80;1.63;;;;;;;;;;5073526;28;20040;-78
2023/03/26 12:32:52;;;;;;;10.98;1.50;;;;;;;;;;5059764;28;20120;-78
2023/03/26 12:35:25;;;;;;;13.95;1.60;;;;;;;;;;5072014;28;20056;-79
2023/03/26 12:37:53;;;;;;;8.93;1.50;;;;;;;;;;5075257;28;20040;-80
2023/03/26 12:40:38;;;;;;;8.00;1.23;;;;;;;;;;5073053;28;20363;-77
2023/03/26 12:43:19;;;;;;;6.25;1.20;;;;;;;;;;5059797;28;20071;-80
2023/03/26 12:46:28;;;;;;;8.50;0.93;;;;;;;;;;5060339;28;20045;-79
2023/03/26 12:49:14;;;;;;;8.52;1.50;;;;;;;;;;5076283;28;20044;-79
2023/03/26 12:51:51;;;;;;;8.40;1.30;;;;;;;;;;5076107;28;20060;-80
2023/03/26 12:54:43;;;;;;;4.53;0.98;;;;;;;;;;5065810;28;20050;-79
2023/03/26 12:57:31;;;;;;;9.90;1.20;;;;;;;;;;5039552;28;20060;-79
2023/03/26 13:00:07;;;;;;;5.18;0.93;;;;;;;;;;5052735;28;20075;-77
2023/03/26 13:02:33;;;;;;;7.57;1.60;;;;;;;;;;5048950;28;20260;-78
2023/03/26 13:05:07;;;;;;;9.30;1.58;;;;;;;;;;5046971;28;20072;-78
2023/03/26 13:07:44;;;;;;;5.07;1.10;;;;;;;;;;5048833;28;20071;-77
2023/03/26 13:10:31;;;;;;;6.70;1.30;;;;;;;;;;5044925;28;20341;-78
2023/03/26 13:13:17;;;;;;;6.97;1.20;;;;;;;;;;5031845;28;20128;-78
2023/03/26 13:15:47;;;;;;;9.48;1.75;;;;;;;;;;5047758;28;20477;-78
2023/03/26 13:18:31;;;;;;;7.57;1.52;;;;;;;;;;5036448;28;20048;-77
2023/03/26 13:20:58;;;;;;;5.55;1.50;;;;;;;;;;5047622;28;20044;-78
2023/03/26 13:23:43;;;;;;;10.13;1.70;;;;;;;;;;5054615;28;20075;-77
2023/03/26 13:26:28;;;;;;;5.85;1.50;;;;;;;;;;5085976;28;20546;-77
2023/03/26 13:28:55;;;;;;;12.33;1.90;;;;;;;;;;5079503;28;20402;-77
2023/03/26 13:31:27;;;;;;;15.77;2.30;;;;;;;;;;5081198;28;20063;-78
2023/03/26 13:33:54;;;;;;;10.57;1.65;;;;;;;;;;5048628;28;20251;-79
2023/03/26 13:36:27;;;;;;;11.85;2.00;;;;;;;;;;5075191;28;20275;-77
2023/03/26 13:39:12;;;;;;;12.05;2.47;;;;;;;;;;5085092;28;20488;-77
2023/03/26 13:41:50;;;;;;;10.38;2.03;;;;;;;;;;5067325;28;20462;-77
2023/03/26 13:44:17;;;;;;;7.72;1.88;;;;;;;;;;5078631;28;20051;-78
2023/03/26 13:46:50;;;;;;;8.68;1.92;;;;;;;;;;5059058;28;20056;-78
2023/03/26 13:49:36;;;;;;;8.98;1.95;;;;;;;;;;5057484;28;20036;-78
2023/03/26 13:52:23;;;;;;;9.68;2.08;;;;;;;;;;5052760;28;20041;-77
2023/03/26 13:55:19;;;;;;;10.13;2.17;;;;;;;;;;5047682;28;20659;-77
2023/03/26 13:57:54;;;;;;;6.85;1.77;;;;;;;;;;5034984;28;20125;-79
2023/03/26 14:00:27;;;;;;;10.45;1.95;;;;;;;;;;5064635;28;20032;-79
2023/03/26 14:02:57;;;;;;;9.93;2.22;;;;;;;;;;5066344;28;20071;-79
2023/03/26 14:05:37;;;;;;;4.50;1.30;;;;;;;;;;5048599;28;20459;-79
2023/03/26 14:08:19;;;;;;;7.28;1.42;;;;;;;;;;5059216;28;20045;-79
2023/03/26 14:10:50;;;;;;;6.20;1.25;;;;;;;;;;5072455;28;20044;-77
2023/03/26 14:13:22;;;;;;;4.70;1.33;;;;;;;;;;5049571;28;20044;-78
2023/03/26 14:16:11;;;;;;;7.28;1.40;;;;;;;;;;5059647;28;20160;-77
2023/03/26 14:18:44;;;;;;;8.20;1.50;;;;;;;;;;5064263;28;20048;-77
2023/03/26 14:21:32;;;;;;;9.05;1.33;;;;;;;;;;5064301;28;20052;-78
2023/03/26 14:23:59;;;;;;;4.22;1.38;;;;;;;;;;5061310;28;20507;-78
2023/03/26 14:26:31;;;;;;;7.97;1.52;;;;;;;;;;5054216;28;20409;-79
2023/03/26 14:29:14;;;;;;;5.57;1.10;;;;;;;;;;5070949;28;20048;-77
2023/03/26 14:31:46;;;;;;;7.55;1.20;;;;;;;;;;5084232;28;20048;-77
2023/03/26 14:34:25;;;;;;;5.72;1.10;;;;;;;;;;5062101;28;20048;-77
2023/03/26 14:36:52;;;;;;;6.75;1.30;;;;;;;;;;5061131;28;20045;-78
2023/03/26 14:39:37;;;;;;;4.80;0.93;;;;;;;;;;5070414;28;20060;-78
2023/03/26 14:42:16;;;;;;;3.63;1.10;;;;;;;;;;5063347;28;20064;-79
2023/03/26 14:44:55;;;;;;;4.68;0.90;;;;;;;;;;5053638;28;20443;-78
2023/03/26 14:47:23;;;;;;;7.82;1.08;;;;;;;;;;5054678;28;20052;-78
2023/03/26 14:50:09;;;;;;;6.20;2.05;;;;;;;;;;5068357;28;20036;-78
2023/03/26 14:52:42;;;;;;;5.07;1.30;;;;;;;;;;5057000;28;20120;-79
2023/03/26 14:55:15;;;;;;;6.57;1.15;;;;;;;;;;5062817;28;20055;-77
2023/03/26 14:57:58;;;;;;;9.15;1.10;;;;;;;;;;5066735;28;20048;-79
2023/03/26 15:01:03;;;;;;;6.97;1.15;;;;;;;;;;5066997;28;20044;-80
2023/03/26 15:03:47;;;;;;;4.45;1.23;;;;;;;;;;4981976;28;20503;-75
2023/03/26 15:06:14;;;;;;;5.93;1.42;;;;;;;;;;4963956;28;20079;-78
2023/03/26 15:08:59;;;;;;;5.95;1.40;;;;;;;;;;5020253;28;20064;-78
2023/03/26 15:11:26;;;;;;;;;;;;;;;;;;5067274;28;20408;-79
2023/03/26 15:13:54;;;;;;;5.75;1.42;;;;;;;;;;5064444;28;19925;-79
2023/03/26 15:16:36;;;;;;;4.80;1.38;;;;;;;;;;5056475;28;20155;-78
2023/03/26 15:19:21;;;;;;;4.88;1.45;;;;;;;;;;5055157;28;20053;-77
2023/03/26 15:21:56;;;;;;;5.63;1.35;;;;;;;;;;5055695;28;20044;-76
2023/03/26 15:24:25;;;;;;;7.10;1.50;;;;;;;;;;5065142;28;20416;-78
2023/03/26 15:27:13;;;;;;;7.22;1.80;;;;;;;;;;5063082;28;20140;-78
2023/03/26 15:29:46;;;;;;;6.45;2.15;;;;;;;;;;5058613;28;20478;-77
2023/03/26 15:32:24;;;;;;;6.25;1.65;;;;;;;;;;5052221;28;20178;-78
2023/03/26 15:35:11;;;;;;;8.88;1.85;;;;;;;;;;5059498;28;20052;-77
2023/03/26 15:37:57;;;;;;;4.93;1.98;;;;;;;;;;5064500;28;20564;-76
2023/03/26 15:40:23;;;;;;;;;;;;;;;;;;5059273;28;20479;-77